Time;durP1;ratioP1;P1;durP2;ratioP2;P2;SDS_P1;SDS_P2;PMS_P1;PMS_P2;Temp;Humidity;BMP_temperature;BMP_pressure;BME280_temperature;BME280_humidity;BME280_pressure;Samples;Min_cycle;Max_cycle;Signal;HPM_P1;HPM_P2
2024/04/19 00:00:22;;;;;;;8.20;5.28;;;5.50;99.90;;;;;;5551321;25;20089;-43
2024/04/19 00:02:49;;;;;;;8.20;5.35;;;5.50;99.90;;;;;;5536207;25;20012;-43
2024/04/19 00:05:16;;;;;;;7.60;5.93;;;5.40;99.90;;;;;;5553822;25;20020;-45
2024/04/19 00:07:43;;;;;;;7.70;5.40;;;5.40;99.90;;;;;;5557051;25;20017;-44
2024/04/19 00:10:11;;;;;;;7.20;5.70;;;5.50;99.90;;;;;;5541465;25;20013;-46
2024/04/19 00:12:38;;;;;;;8.98;6.05;;;5.40;99.90;;;;;;5541297;25;20016;-43
2024/04/19 00:15:06;;;;;;;9.05;6.20;;;5.30;99.90;;;;;;5543708;25;19993;-44
2024/04/19 00:17:34;;;;;;;7.25;5.70;;;5.40;99.90;;;;;;5550581;25;20011;-43
2024/04/19 00:20:01;;;;;;;9.18;6.05;;;5.40;99.90;;;;;;5554126;25;20453;-46
2024/04/19 00:22:29;;;;;;;9.27;5.85;;;5.40;99.90;;;;;;5542724;25;20121;-42
2024/04/19 00:24:58;;;;;;;9.75;5.85;;;5.50;99.90;;;;;;5544585;25;20004;-44
2024/04/19 00:27:25;;;;;;;8.88;5.88;;;5.40;99.90;;;;;;5548067;25;20018;-45
2024/04/19 00:29:52;;;;;;;10.68;5.95;;;5.40;99.90;;;;;;5552394;25;20414;-44
2024/04/19 00:32:19;;;;;;;8.27;5.75;;;5.40;99.90;;;;;;5539905;25;20013;-44
2024/04/19 00:34:46;;;;;;;7.72;5.80;;;5.40;99.90;;;;;;5551771;25;20004;-44
2024/04/19 00:37:14;;;;;;;8.30;6.13;;;5.40;99.90;;;;;;5550959;25;20005;-43
2024/04/19 00:39:41;;;;;;;6.90;5.47;;;5.40;99.90;;;;;;5547445;25;20011;-44
2024/04/19 00:42:08;;;;;;;8.48;5.50;;;5.40;99.90;;;;;;5533393;25;19997;-44
2024/04/19 00:44:36;;;;;;;9.95;5.93;;;5.40;99.90;;;;;;5546468;25;20001;-45
2024/04/19 00:47:05;;;;;;;9.93;5.82;;;5.50;99.90;;;;;;5545023;25;20020;-45
2024/04/19 00:49:33;;;;;;;9.05;5.60;;;5.50;99.90;;;;;;5536660;25;20407;-44
2024/04/19 00:52:01;;;;;;;9.30;6.00;;;5.50;99.90;;;;;;5521922;25;20069;-44
2024/04/19 00:54:28;;;;;;;11.30;5.93;;;5.50;99.90;;;;;;5541891;25;20026;-43
2024/04/19 00:56:56;;;;;;;8.10;6.35;;;5.50;99.90;;;;;;5549221;25;20005;-44
2024/04/19 00:59:24;;;;;;;9.30;6.22;;;5.60;99.90;;;;;;5552769;25;20004;-43
2024/04/19 01:01:52;;;;;;;10.93;6.00;;;5.50;99.90;;;;;;5545824;25;20433;-46
2024/04/19 01:04:21;;;;;;;11.02;6.57;;;5.40;99.90;;;;;;5548257;25;20489;-46
2024/04/19 01:06:48;;;;;;;9.77;6.63;;;5.40;99.90;;;;;;5539296;25;20012;-46
2024/04/19 01:09:16;;;;;;;8.18;6.45;;;5.40;99.90;;;;;;5552981;25;20030;-46
2024/04/19 01:11:43;;;;;;;11.80;6.78;;;5.30;99.90;;;;;;5548270;25;20061;-47
2024/04/19 01:14:10;;;;;;;10.23;6.43;;;5.20;99.90;;;;;;5544369;25;20351;-47
2024/04/19 01:16:37;;;;;;;12.18;6.45;;;5.20;99.90;;;;;;5552587;25;20024;-47
2024/04/19 01:19:08;;;;;;;11.48;6.88;;;5.10;99.90;;;;;;5544917;25;19998;-44
2024/04/19 01:21:35;;;;;;;12.80;7.10;;;5.10;99.90;;;;;;5516650;25;20001;-47
2024/04/19 01:24:11;;;;;;;9.10;6.43;;;5.10;99.90;;;;;;5540411;25;20023;-45
2024/04/19 01:26:38;;;;;;;11.75;7.07;;;5.10;99.90;;;;;;5555611;25;20001;-49
2024/04/19 01:29:05;;;;;;;10.73;7.30;;;5.00;99.90;;;;;;5550333;25;20045;-46
2024/04/19 01:31:32;;;;;;;9.90;7.22;;;5.00;99.90;;;;;;5534614;25;20073;-46
2024/04/19 01:33:59;;;;;;;12.35;7.57;;;5.00;99.90;;;;;;5545030;25;20302;-44
2024/04/19 01:36:27;;;;;;;10.43;7.03;;;5.00;99.90;;;;;;5546015;25;20443;-44
2024/04/19 01:38:56;;;;;;;10.10;6.90;;;5.10;99.90;;;;;;5557224;25;20014;-45
2024/04/19 01:41:23;;;;;;;11.35;7.10;;;5.10;99.90;;;;;;5546732;25;20005;-44
2024/04/19 01:43:50;;;;;;;10.32;7.45;;;5.10;99.90;;;;;;5549562;25;20075;-44
2024/04/19 01:46:17;;;;;;;11.55;7.85;;;5.10;99.90;;;;;;5545994;25;20064;-47
2024/04/19 01:48:44;;;;;;;12.40;7.55;;;5.10;99.90;;;;;;5561627;25;20001;-45
2024/04/19 01:51:11;;;;;;;10.07;7.20;;;5.10;99.90;;;;;;5527141;25;20076;-44
2024/04/19 01:53:38;;;;;;;13.48;7.72;;;5.00;99.90;;;;;;5548030;25;20080;-44
2024/04/19 01:56:05;;;;;;;11.82;8.02;;;5.00;99.90;;;;;;5537375;25;20334;-45
2024/04/19 01:58:38;;;;;;;11.98;8.13;;;5.00;99.90;;;;;;5541889;25;20467;-43
2024/04/19 02:01:06;;;;;;;12.00;8.25;;;5.00;99.90;;;;;;5538146;25;20453;-43
2024/04/19 02:03:33;;;;;;;12.77;8.65;;;5.00;99.90;;;;;;5547127;25;20033;-46
2024/04/19 02:06:14;;;;;;;14.50;7.95;;;5.00;99.90;;;;;;5546904;25;20069;-46
2024/04/19 02:08:41;;;;;;;11.73;8.70;;;5.00;99.90;;;;;;5551493;25;20384;-45
2024/04/19 02:11:09;;;;;;;10.77;8.57;;;5.00;99.90;;;;;;5542488;25;20328;-41
2024/04/19 02:13:36;;;;;;;13.52;8.60;;;5.00;99.90;;;;;;5542174;25;20005;-48
2024/04/19 02:16:03;;;;;;;16.55;9.45;;;5.00;99.90;;;;;;5557068;25;20011;-46
2024/04/19 02:18:30;;;;;;;12.73;9.20;;;5.00;99.90;;;;;;5542909;25;20410;-45
2024/04/19 02:20:57;;;;;;;13.23;9.32;;;5.00;99.90;;;;;;5559332;25;20000;-46
2024/04/19 02:23:37;;;;;;;12.00;9.07;;;5.00;99.90;;;;;;5552904;25;20069;-45
2024/04/19 02:26:04;;;;;;;15.23;9.85;;;5.00;99.90;;;;;;5551639;25;20011;-46
2024/04/19 02:31:18;;;;;;;13.93;10.25;;;5.10;99.90;;;;;;5535293;25;19997;-45
2024/04/19 02:33:46;;;;;;;13.98;10.25;;;5.00;99.90;;;;;;5529881;25;20005;-45
2024/04/19 02:36:13;;;;;;;15.77;9.80;;;5.10;99.90;;;;;;5550198;25;20016;-46
2024/04/19 02:38:41;;;;;;;13.95;9.68;;;5.10;99.90;;;;;;5548269;25;20362;-46
2024/04/19 02:41:08;;;;;;;14.45;10.25;;;5.00;99.90;;;;;;5546062;25;20441;-43
2024/04/19 02:43:35;;;;;;;13.20;9.65;;;5.20;99.90;;;;;;5547596;25;20529;-46
2024/04/19 02:46:03;;;;;;;17.23;10.88;;;5.10;99.90;;;;;;5552511;25;20036;-48
2024/04/19 02:48:31;;;;;;;15.90;10.98;;;5.10;99.90;;;;;;5538767;25;20385;-44
2024/04/19 02:50:59;;;;;;;15.57;10.80;;;5.10;99.90;;;;;;5552024;25;20400;-46
2024/04/19 02:53:25;;;;;;;15.68;10.57;;;5.10;99.90;;;;;;5536927;25;20029;-45
2024/04/19 02:55:53;;;;;;;15.77;11.18;;;5.10;99.90;;;;;;5538619;25;20001;-46
2024/04/19 02:58:20;;;;;;;15.13;10.93;;;5.10;99.90;;;;;;5542292;25;20523;-44
2024/04/19 03:00:46;;;;;;;15.13;11.23;;;5.10;99.90;;;;;;5551697;25;20005;-45
2024/04/19 03:03:14;;;;;;;16.02;10.93;;;5.10;99.90;;;;;;5506135;25;20000;-45
2024/04/19 03:05:41;;;;;;;18.55;11.63;;;5.10;99.90;;;;;;5547967;25;20023;-42
2024/04/19 03:08:08;;;;;;;18.27;11.18;;;5.10;99.90;;;;;;5546057;25;20005;-43
2024/04/19 03:10:39;;;;;;;19.05;11.63;;;5.20;99.90;;;;;;5548429;25;20004;-44
2024/04/19 03:13:08;;;;;;;14.93;10.63;;;5.10;99.90;;;;;;5547571;25;20069;-45
2024/04/19 03:15:37;;;;;;;16.15;10.98;;;5.20;99.90;;;;;;5551247;25;20291;-48
2024/04/19 03:18:05;;;;;;;18.60;11.35;;;5.10;99.90;;;;;;5541991;25;20004;-43
2024/04/19 03:20:33;;;;;;;15.63;11.18;;;5.20;99.90;;;;;;5551266;25;20480;-45
2024/04/19 03:23:00;;;;;;;15.90;10.80;;;5.20;99.90;;;;;;5545656;25;20016;-46
2024/04/19 03:25:27;;;;;;;19.15;11.68;;;5.20;99.90;;;;;;5547028;25;20005;-45
2024/04/19 03:27:54;;;;;;;15.80;10.73;;;5.30;99.90;;;;;;5547369;25;20472;-45
2024/04/19 03:30:33;;;;;;;15.80;12.07;;;5.30;99.90;;;;;;5535065;25;20138;-46
2024/04/19 03:33:00;;;;;;;19.45;11.52;;;5.30;99.90;;;;;;5551504;25;20361;-46
2024/04/19 03:35:28;;;;;;;15.10;10.38;;;5.40;99.90;;;;;;5535155;25;20001;-45
2024/04/19 03:37:55;;;;;;;16.52;10.57;;;5.30;99.90;;;;;;5551047;25;20480;-45
2024/04/19 03:40:22;;;;;;;16.02;10.60;;;5.40;99.90;;;;;;5535805;25;20561;-47
2024/04/19 03:42:54;;;;;;;19.10;11.25;;;5.40;99.90;;;;;;5545112;25;20017;-44
2024/04/19 03:48:08;;;;;;;15.05;10.43;;;5.40;99.90;;;;;;5550150;25;20321;-44
2024/04/19 03:50:35;;;;;;;17.75;10.88;;;5.30;99.90;;;;;;5542437;25;20060;-43
2024/04/19 03:53:03;;;;;;;15.50;10.75;;;5.30;99.90;;;;;;5537997;25;20034;-43
2024/04/19 03:55:31;;;;;;;16.15;10.43;;;5.30;99.90;;;;;;5537197;25;20009;-48
2024/04/19 03:57:58;;;;;;;14.50;10.80;;;5.30;99.90;;;;;;5543391;25;19998;-43
2024/04/19 04:00:28;;;;;;;15.57;10.73;;;5.40;99.90;;;;;;5540130;25;20420;-43
2024/04/19 04:02:55;;;;;;;16.55;10.73;;;5.40;99.90;;;;;;5547821;25;20457;-44
2024/04/19 04:05:22;;;;;;;16.73;10.85;;;5.40;99.90;;;;;;5509259;25;20037;-44
2024/04/19 04:07:49;;;;;;;16.23;11.48;;;5.40;99.90;;;;;;5551822;25;20000;-43
2024/04/19 04:10:17;;;;;;;15.27;10.80;;;5.30;99.90;;;;;;5544345;25;20024;-44
2024/04/19 04:12:44;;;;;;;17.25;10.32;;;5.30;99.90;;;;;;5550203;25;19998;-44
2024/04/19 04:15:11;;;;;;;15.65;10.75;;;5.30;99.90;;;;;;5543442;25;20002;-44
2024/04/19 04:17:38;;;;;;;21.67;11.10;;;5.30;99.90;;;;;;5542639;25;20012;-44
2024/04/19 04:20:05;;;;;;;18.83;11.15;;;5.40;99.90;;;;;;5548227;25;20233;-44
2024/04/19 04:22:32;;;;;;;17.10;10.93;;;5.30;99.90;;;;;;5545305;25;20004;-43
2024/04/19 04:24:59;;;;;;;16.02;10.60;;;5.30;99.90;;;;;;5549202;25;20000;-45
2024/04/19 04:27:26;;;;;;;17.23;10.13;;;5.30;99.90;;;;;;5539563;25;20001;-43
2024/04/19 04:29:53;;;;;;;15.38;10.57;;;5.30;99.90;;;;;;5552254;25;20023;-46
2024/04/19 04:32:21;;;;;;;15.82;10.23;;;5.30;99.90;;;;;;5538884;25;20012;-43
2024/04/19 04:34:48;;;;;;;15.88;10.43;;;5.30;99.90;;;;;;5538276;25;20334;-43
2024/04/19 04:37:16;;;;;;;17.42;11.02;;;5.30;99.90;;;;;;5547196;25;19997;-43
2024/04/19 04:39:43;;;;;;;17.40;10.75;;;5.30;99.90;;;;;;5517323;25;20004;-46
2024/04/19 04:42:10;;;;;;;14.18;9.73;;;5.30;99.90;;;;;;5559956;25;20365;-46
2024/04/19 04:44:37;;;;;;;14.35;10.23;;;5.30;99.90;;;;;;5554723;25;20035;-44
2024/04/19 04:47:05;;;;;;;15.60;10.60;;;5.40;99.90;;;;;;5541029;25;20024;-44
2024/04/19 04:49:32;;;;;;;17.15;10.02;;;5.50;99.90;;;;;;5551733;25;20017;-46
2024/04/19 04:51:59;;;;;;;16.38;10.43;;;5.50;99.90;;;;;;5532294;25;20054;-45
2024/04/19 04:54:26;;;;;;;15.45;9.20;;;5.50;99.90;;;;;;5550489;25;20139;-45
2024/04/19 04:56:53;;;;;;;13.90;9.73;;;5.60;99.90;;;;;;5551096;25;20011;-43
2024/04/19 04:59:21;;;;;;;15.82;10.32;;;5.60;99.90;;;;;;5538876;25;20001;-44
2024/04/19 05:01:48;;;;;;;13.43;9.48;;;5.60;99.90;;;;;;5535272;25;19998;-46
2024/04/19 05:04:15;;;;;;;17.92;10.75;;;5.70;99.90;;;;;;5545964;25;20001;-43
2024/04/19 05:06:43;;;;;;;13.85;9.38;;;5.70;99.90;;;;;;5547738;25;20016;-44
2024/04/19 05:09:10;;;;;;;16.25;10.00;;;5.70;99.90;;;;;;5528501;25;20005;-44
2024/04/19 05:11:37;;;;;;;13.77;9.15;;;5.80;99.90;;;;;;5547360;25;20015;-45
2024/04/19 05:14:04;;;;;;;14.45;9.15;;;5.80;99.90;;;;;;5544490;25;20001;-43
2024/04/19 05:16:31;;;;;;;16.27;9.63;;;5.80;99.90;;;;;;5552077;25;20011;-45
2024/04/19 05:18:58;;;;;;;13.85;9.18;;;5.90;99.90;;;;;;5552176;25;20028;-45
2024/04/19 05:21:25;;;;;;;13.50;9.77;;;5.90;99.90;;;;;;5544869;25;20466;-46
2024/04/19 05:23:52;;;;;;;12.82;9.48;;;6.00;99.90;;;;;;5543846;25;20103;-43
2024/04/19 05:26:19;;;;;;;13.63;9.52;;;6.00;99.90;;;;;;5542284;25;20001;-47
2024/04/19 05:28:46;;;;;;;17.38;10.13;;;6.00;99.90;;;;;;5541963;25;20024;-45
2024/04/19 05:31:13;;;;;;;12.95;9.00;;;6.00;99.90;;;;;;5547032;25;20015;-47
2024/04/19 05:33:40;;;;;;;13.43;8.52;;;6.00;99.90;;;;;;5551656;25;19998;-44
2024/04/19 05:36:07;;;;;;;15.00;8.93;;;6.00;99.90;;;;;;5557607;25;20017;-44
2024/04/19 05:38:34;;;;;;;14.88;9.35;;;6.10;99.90;;;;;;5545065;25;20009;-44
2024/04/19 05:41:01;;;;;;;12.70;9.07;;;6.20;99.90;;;;;;5552729;25;20691;-44
2024/04/19 05:43:29;;;;;;;13.27;8.63;;;6.10;99.90;;;;;;5547476;25;20000;-44
2024/04/19 05:45:56;;;;;;;13.20;8.88;;;6.20;99.90;;;;;;5539774;25;20517;-43
2024/04/19 05:48:23;;;;;;;14.32;8.80;;;6.30;99.90;;;;;;5532551;25;20005;-44
2024/04/19 05:50:50;;;;;;;14.35;8.68;;;6.30;99.90;;;;;;5548815;25;20000;-45
2024/04/19 05:53:17;;;;;;;11.98;8.80;;;6.40;99.90;;;;;;5536563;25;20005;-42
2024/04/19 05:55:44;;;;;;;10.98;8.07;;;6.50;99.90;;;;;;5528344;25;20506;-45
2024/04/19 05:58:12;;;;;;;11.27;8.00;;;6.50;99.90;;;;;;5545671;25;20501;-46
2024/04/19 06:00:39;;;;;;;12.68;8.10;;;6.50;99.90;;;;;;5544278;25;20037;-45
2024/04/19 06:03:07;;;;;;;15.23;8.60;;;6.50;99.90;;;;;;5552215;25;20013;-45
2024/04/19 06:05:34;;;;;;;13.02;8.30;;;6.50;99.90;;;;;;5539398;25;20418;-44
2024/04/19 06:08:01;;;;;;;17.65;8.30;;;6.50;99.90;;;;;;5552136;25;20019;-43
2024/04/19 06:10:29;;;;;;;10.75;7.68;;;6.70;99.90;;;;;;5550667;25;20458;-43
2024/04/19 06:12:56;;;;;;;10.18;8.07;;;6.90;99.90;;;;;;5538062;25;20012;-45
2024/04/19 06:15:23;;;;;;;15.52;8.98;;;6.90;99.90;;;;;;5547487;25;20462;-45
2024/04/19 06:17:50;;;;;;;10.55;7.47;;;7.00;99.90;;;;;;5548902;25;20013;-44
2024/04/19 06:20:17;;;;;;;15.30;7.55;;;6.90;99.90;;;;;;5541303;25;20025;-47
2024/04/19 06:22:44;;;;;;;11.55;7.20;;;6.80;99.90;;;;;;5543154;25;20005;-42
2024/04/19 06:25:11;;;;;;;10.35;7.30;;;6.80;99.90;;;;;;5546746;25;20004;-48
2024/04/19 06:27:38;;;;;;;11.05;7.75;;;6.70;99.90;;;;;;5547974;25;20012;-45
2024/04/19 06:30:06;;;;;;;9.07;6.72;;;6.80;99.90;;;;;;5539139;25;19996;-48
2024/04/19 06:32:33;;;;;;;12.70;7.32;;;6.80;99.90;;;;;;5549698;25;20001;-44
2024/04/19 06:35:00;;;;;;;11.63;6.90;;;6.90;99.90;;;;;;5550245;25;20033;-45
2024/04/19 06:37:27;;;;;;;12.55;7.80;;;6.90;99.90;;;;;;5541317;25;20001;-43
2024/04/19 06:39:54;;;;;;;11.27;7.22;;;7.10;99.90;;;;;;5545135;25;19996;-48
2024/04/19 06:42:33;;;;;;;8.98;6.70;;;7.20;99.90;;;;;;5542956;25;20005;-46
2024/04/19 06:45:00;;;;;;;9.75;6.65;;;7.20;99.90;;;;;;5542844;25;20013;-45
2024/04/19 06:47:27;;;;;;;11.43;7.47;;;7.30;99.90;;;;;;5541120;25;20001;-46
2024/04/19 06:49:54;;;;;;;10.95;7.22;;;7.30;99.90;;;;;;5549273;25;20054;-43
2024/04/19 06:52:21;;;;;;;12.13;6.90;;;7.40;99.90;;;;;;5545297;25;20012;-45
2024/04/19 06:54:48;;;;;;;10.68;7.32;;;7.70;99.90;;;;;;5547716;25;20487;-43
2024/04/19 06:57:17;;;;;;;11.32;6.68;;;7.50;99.90;;;;;;5515618;25;20106;-46
2024/04/19 06:59:44;;;;;;;11.68;7.85;;;7.50;99.90;;;;;;5529420;25;20485;-42
2024/04/19 07:02:11;;;;;;;11.95;6.68;;;7.50;99.90;;;;;;5542332;25;20505;-43
2024/04/19 07:04:39;;;;;;;10.15;8.00;;;7.60;99.90;;;;;;5550002;25;20012;-47
2024/04/19 07:07:07;;;;;;;8.13;6.20;;;7.70;99.90;;;;;;5533378;25;20007;-45
2024/04/19 07:09:34;;;;;;;9.98;6.55;;;7.60;99.90;;;;;;5550204;25;20005;-44
2024/04/19 07:12:01;;;;;;;10.75;6.93;;;7.60;99.90;;;;;;5544293;25;20000;-44
2024/04/19 07:14:28;;;;;;;11.80;7.15;;;7.60;99.90;;;;;;5527526;25;19997;-43
2024/04/19 07:16:55;;;;;;;8.27;6.53;;;7.70;99.90;;;;;;5539623;25;20005;-45
2024/04/19 07:19:22;;;;;;;10.05;6.47;;;7.90;99.90;;;;;;5547209;25;19997;-47
2024/04/19 07:21:49;;;;;;;10.00;6.72;;;7.80;99.90;;;;;;5544349;25;20517;-43
2024/04/19 07:24:16;;;;;;;13.57;6.22;;;7.80;99.90;;;;;;5544896;25;20012;-44
2024/04/19 07:26:43;;;;;;;10.90;7.13;;;7.60;99.90;;;;;;5547133;25;20001;-46
2024/04/19 07:29:10;;;;;;;8.02;6.45;;;7.70;99.90;;;;;;5549774;25;20008;-44
2024/04/19 07:31:39;;;;;;;10.05;6.60;;;7.60;99.90;;;;;;5546269;25;20376;-45
2024/04/19 07:34:06;;;;;;;10.05;6.70;;;7.50;99.90;;;;;;5540529;25;20016;-46
2024/04/19 07:36:33;;;;;;;9.60;6.47;;;7.50;99.90;;;;;;5546362;25;20019;-45
2024/04/19 07:39:01;;;;;;;9.30;6.20;;;7.40;99.90;;;;;;5551353;25;20009;-46
2024/04/19 07:41:28;;;;;;;10.80;6.68;;;7.50;99.90;;;;;;5549937;25;20001;-46
2024/04/19 07:43:55;;;;;;;8.35;6.28;;;7.60;99.90;;;;;;5546993;25;20030;-47
2024/04/19 07:46:27;;;;;;;;;;;7.40;99.90;;;;;;5549565;25;20001;-47
2024/04/19 07:48:54;;;;;;;9.18;6.03;;;7.50;99.90;;;;;;5533601;25;20354;-45
2024/04/19 07:51:22;;;;;;;10.75;6.55;;;7.50;99.90;;;;;;5550524;25;20005;-46
2024/04/19 07:53:49;;;;;;;9.43;6.55;;;7.30;99.90;;;;;;5550771;25;20424;-49
2024/04/19 07:56:16;;;;;;;8.30;6.80;;;7.30;99.90;;;;;;5544298;25;20009;-42
2024/04/19 07:58:46;;;;;;;9.85;6.40;;;7.40;99.90;;;;;;5550680;25;20031;-44
2024/04/19 08:01:13;;;;;;;10.57;7.13;;;7.40;99.90;;;;;;5502954;25;20450;-45
2024/04/19 08:03:41;;;;;;;11.07;6.25;;;7.40;99.90;;;;;;5549538;25;20017;-45
2024/04/19 08:06:09;;;;;;;11.02;6.82;;;7.20;99.90;;;;;;5544105;25;19993;-44
2024/04/19 08:08:36;;;;;;;13.02;7.10;;;7.20;99.90;;;;;;5541800;25;19998;-45
2024/04/19 08:11:03;;;;;;;10.75;6.80;;;7.00;99.90;;;;;;5545077;25;20016;-47
2024/04/19 08:13:30;;;;;;;10.02;7.00;;;6.80;99.90;;;;;;5541457;25;20020;-46
2024/04/19 08:15:57;;;;;;;9.77;6.57;;;6.70;99.90;;;;;;5543274;25;19992;-43
2024/04/19 08:18:24;;;;;;;10.85;6.57;;;6.70;99.90;;;;;;5536865;25;20012;-43
2024/04/19 08:20:51;;;;;;;9.55;6.53;;;6.80;99.90;;;;;;5549161;25;20013;-46
2024/04/19 08:23:18;;;;;;;8.27;6.68;;;6.80;99.90;;;;;;5558015;25;20351;-44
2024/04/19 08:25:45;;;;;;;8.95;5.93;;;6.90;99.90;;;;;;5551370;25;20046;-45
2024/04/19 08:28:12;;;;;;;9.10;5.88;;;6.80;99.90;;;;;;5560510;25;20001;-47
2024/04/19 08:30:39;;;;;;;9.95;6.82;;;6.70;99.90;;;;;;5542819;25;20005;-44
2024/04/19 08:33:06;;;;;;;11.18;6.90;;;6.70;99.90;;;;;;5551094;25;19997;-45
2024/04/19 08:35:33;;;;;;;8.55;6.45;;;6.70;99.90;;;;;;5553103;25;20011;-46
2024/04/19 08:38:00;;;;;;;9.63;6.38;;;6.90;99.90;;;;;;5548710;25;20076;-45
2024/04/19 08:40:31;;;;;;;8.73;6.32;;;6.90;99.90;;;;;;5547387;25;20013;-46
2024/04/19 08:42:58;;;;;;;10.50;6.70;;;6.80;99.90;;;;;;5550755;25;20011;-45
2024/04/19 08:45:26;;;;;;;13.25;7.13;;;6.90;99.90;;;;;;5550294;25;20006;-44
2024/04/19 08:47:55;;;;;;;9.43;6.78;;;6.70;99.90;;;;;;5553043;25;20998;-43
2024/04/19 08:50:22;;;;;;;11.80;6.70;;;6.50;99.90;;;;;;5551267;25;20081;-45
2024/04/19 08:52:51;;;;;;;8.13;6.43;;;6.50;99.90;;;;;;5546215;25;20009;-45
2024/04/19 08:55:38;;;;;;;8.70;5.85;;;6.50;99.90;;;;;;5543239;25;20050;-45
2024/04/19 08:58:06;;;;;;;7.97;6.03;;;6.60;99.90;;;;;;5553435;25;20001;-45
2024/04/19 09:00:33;;;;;;;8.25;5.88;;;6.40;99.90;;;;;;5545328;25;20315;-44
2024/04/19 09:03:00;;;;;;;9.05;6.20;;;6.40;99.90;;;;;;5544356;25;19996;-46
2024/04/19 09:05:28;;;;;;;14.35;6.25;;;6.40;99.90;;;;;;5545887;25;20012;-45
2024/04/19 09:07:55;;;;;;;9.88;6.35;;;6.40;99.90;;;;;;5560198;25;20007;-43
2024/04/19 09:10:22;;;;;;;9.15;5.75;;;6.50;99.90;;;;;;5553388;25;20495;-46
2024/04/19 09:12:49;;;;;;;9.55;6.35;;;6.50;99.90;;;;;;5548123;25;20005;-45
2024/04/19 09:15:18;;;;;;;10.50;6.03;;;6.40;99.90;;;;;;5555457;25;19993;-45
2024/04/19 09:17:48;;;;;;;9.55;6.13;;;6.40;99.90;;;;;;5551814;25;20489;-41
2024/04/19 09:20:16;;;;;;;9.98;5.72;;;6.40;99.90;;;;;;5555272;25;20009;-45
2024/04/19 09:22:43;;;;;;;9.50;6.20;;;6.30;99.90;;;;;;5552454;25;20015;-45
2024/04/19 09:25:13;;;;;;;10.82;5.90;;;6.30;99.90;;;;;;5544169;25;20052;-44
2024/04/19 09:27:40;;;;;;;9.73;6.30;;;6.40;99.90;;;;;;5545035;25;20000;-43
2024/04/19 09:30:09;;;;;;;8.35;5.75;;;6.40;99.90;;;;;;5543319;25;19997;-46
2024/04/19 09:32:36;;;;;;;12.07;6.13;;;6.40;99.90;;;;;;5542043;25;19997;-44
2024/04/19 09:35:04;;;;;;;9.95;6.40;;;6.40;99.90;;;;;;5542577;25;20007;-43
2024/04/19 09:37:32;;;;;;;9.23;6.05;;;6.40;99.90;;;;;;5548555;25;20049;-44
2024/04/19 09:39:59;;;;;;;7.97;5.97;;;6.60;99.90;;;;;;5544346;25;20025;-43
2024/04/19 09:42:30;;;;;;;7.57;5.50;;;6.50;99.90;;;;;;5531744;25;20016;-45
2024/04/19 09:45:01;;;;;;;7.65;5.25;;;6.70;99.90;;;;;;5515335;25;20001;-44
2024/04/19 09:47:33;;;;;;;7.55;5.32;;;6.80;99.90;;;;;;5549030;25;20012;-43
2024/04/19 09:50:02;;;;;;;8.90;5.45;;;6.70;99.90;;;;;;5539105;25;20403;-44
2024/04/19 09:52:30;;;;;;;7.63;5.80;;;6.70;99.90;;;;;;5536866;25;20006;-45
2024/04/19 09:55:16;;;;;;;6.55;4.63;;;6.60;99.90;;;;;;5547188;25;20244;-44
2024/04/19 09:57:46;;;;;;;7.25;4.95;;;6.50;99.90;;;;;;5539055;25;20009;-48
2024/04/19 10:00:17;;;;;;;6.32;4.78;;;6.50;99.90;;;;;;5543925;25;19996;-47
2024/04/19 10:02:44;;;;;;;7.25;5.03;;;6.50;99.90;;;;;;5545056;25;20001;-46
2024/04/19 10:05:13;;;;;;;6.55;4.90;;;6.30;99.90;;;;;;5535815;25;20409;-49
2024/04/19 10:07:42;;;;;;;9.30;4.85;;;6.40;99.90;;;;;;5543798;25;20619;-46
2024/04/19 10:10:09;;;;;;;6.97;4.85;;;6.30;99.90;;;;;;5543971;25;20005;-46
2024/04/19 10:12:37;;;;;;;7.05;4.82;;;6.20;99.90;;;;;;5542544;25;20125;-47
2024/04/19 10:15:10;;;;;;;;;;;6.10;99.90;;;;;;5553480;25;20020;-45
2024/04/19 10:17:37;;;;;;;10.88;4.57;;;6.10;99.90;;;;;;5534662;25;20350;-44
2024/04/19 10:20:05;;;;;;;7.10;4.82;;;6.20;99.90;;;;;;5542677;25;20019;-44
2024/04/19 10:22:33;;;;;;;7.88;4.47;;;6.30;99.90;;;;;;5535064;25;20008;-46
2024/04/19 10:25:01;;;;;;;7.95;4.78;;;6.40;99.90;;;;;;5543876;25;19992;-48
2024/04/19 10:27:32;;;;;;;6.78;4.90;;;6.40;99.90;;;;;;5536929;25;20026;-43
2024/04/19 10:30:04;;;;;;;5.97;3.90;;;6.40;99.90;;;;;;5550711;25;20023;-47
2024/04/19 10:32:33;;;;;;;5.78;4.10;;;6.30;99.90;;;;;;5547654;25;20466;-45
2024/04/19 10:35:01;;;;;;;6.75;4.18;;;6.50;99.90;;;;;;5542428;25;19997;-49
2024/04/19 10:37:28;;;;;;;6.65;4.10;;;6.50;99.90;;;;;;5543577;25;20067;-46
2024/04/19 10:39:55;;;;;;;5.15;3.65;;;6.30;99.90;;;;;;5548243;25;20129;-48
2024/04/19 10:42:23;;;;;;;5.63;4.03;;;6.20;99.90;;;;;;5549186;25;20087;-43
2024/04/19 10:44:51;;;;;;;5.95;3.88;;;6.20;99.90;;;;;;5541771;25;20012;-45
2024/04/19 10:47:20;;;;;;;5.55;3.67;;;6.20;99.90;;;;;;5549734;25;19993;-44
2024/04/19 10:49:48;;;;;;;4.85;3.38;;;6.20;99.90;;;;;;5546856;25;20078;-50
2024/04/19 10:52:21;;;;;;;5.57;3.63;;;6.10;99.90;;;;;;5543146;25;20015;-47
2024/04/19 10:54:48;;;;;;;5.85;3.70;;;6.00;99.90;;;;;;5564672;25;20013;-46
2024/04/19 10:57:15;;;;;;;6.43;3.45;;;6.00;99.90;;;;;;5525362;25;20199;-43
2024/04/19 10:59:43;;;;;;;4.40;3.10;;;6.10;99.90;;;;;;5553660;25;19997;-49
2024/04/19 11:02:12;;;;;;;5.55;3.05;;;6.00;99.90;;;;;;5541715;25;20025;-46
2024/04/19 11:04:42;;;;;;;4.80;2.92;;;5.90;99.90;;;;;;5536571;25;20009;-45
2024/04/19 11:07:09;;;;;;;3.65;2.30;;;5.70;99.90;;;;;;5545617;25;20001;-48
2024/04/19 11:09:36;;;;;;;3.97;2.50;;;5.60;99.90;;;;;;5542385;25;20012;-45
2024/04/19 11:12:04;;;;;;;3.92;2.38;;;5.60;99.90;;;;;;5534057;25;20030;-47
2024/04/19 11:14:31;;;;;;;3.63;2.35;;;5.50;99.90;;;;;;5537379;25;20267;-44
2024/04/19 11:16:59;;;;;;;2.85;2.00;;;5.40;99.90;;;;;;5548560;25;20024;-47
2024/04/19 11:19:26;;;;;;;4.68;2.33;;;5.40;99.90;;;;;;5546786;25;20414;-44
2024/04/19 11:21:54;;;;;;;3.00;2.20;;;5.30;99.90;;;;;;5551180;25;20008;-48
2024/04/19 11:24:21;;;;;;;3.60;2.25;;;5.20;99.90;;;;;;5543387;25;20011;-46
2024/04/19 11:26:49;;;;;;;3.40;2.17;;;5.30;99.90;;;;;;5536262;25;20022;-46
2024/04/19 11:29:17;;;;;;;3.33;2.30;;;5.30;99.90;;;;;;5550756;25;20000;-45
2024/04/19 11:31:47;;;;;;;3.60;2.10;;;5.40;99.90;;;;;;5547857;25;20236;-48
2024/04/19 11:34:14;;;;;;;4.82;2.00;;;5.40;99.90;;;;;;5538095;25;20019;-47
2024/04/19 11:36:43;;;;;;;4.25;2.22;;;5.60;99.90;;;;;;5548668;25;20013;-47
2024/04/19 11:39:13;;;;;;;2.97;1.83;;;5.60;99.90;;;;;;5540343;25;20002;-48
2024/04/19 11:41:41;;;;;;;5.00;1.92;;;5.70;99.90;;;;;;5534688;25;20029;-47
2024/04/19 11:44:08;;;;;;;3.30;1.88;;;5.50;99.90;;;;;;5549355;25;20013;-45
2024/04/19 11:46:35;;;;;;;3.45;2.13;;;5.50;99.90;;;;;;5533453;25;20492;-45
2024/04/19 11:49:06;;;;;;;4.00;2.03;;;5.50;99.90;;;;;;5550811;25;20452;-45
2024/04/19 11:51:34;;;;;;;3.03;2.00;;;5.60;99.90;;;;;;5531627;25;20461;-47
2024/04/19 11:54:01;;;;;;;2.75;1.80;;;5.70;99.90;;;;;;5556078;25;20015;-48
2024/04/19 11:56:28;;;;;;;2.22;1.60;;;5.70;99.90;;;;;;5538218;25;20009;-46
2024/04/19 11:58:58;;;;;;;2.92;1.67;;;5.60;99.90;;;;;;5531454;25;20001;-47
2024/04/19 12:01:27;;;;;;;4.65;2.03;;;5.50;99.90;;;;;;5535825;25;20009;-47
2024/04/19 12:03:55;;;;;;;2.88;1.88;;;5.50;99.90;;;;;;5538180;25;20446;-45
2024/04/19 12:06:22;;;;;;;2.83;1.80;;;5.60;99.90;;;;;;5528628;25;20016;-46
2024/04/19 12:08:50;;;;;;;3.22;1.88;;;5.50;99.90;;;;;;5514463;25;20468;-47
2024/04/19 12:11:17;;;;;;;4.03;2.17;;;5.50;99.90;;;;;;5536553;25;19998;-44
2024/04/19 12:13:46;;;;;;;4.45;2.40;;;5.30;99.90;;;;;;5536567;25;20005;-43
2024/04/19 12:16:33;;;;;;;1.95;1.45;;;5.30;99.90;;;;;;5529615;25;20014;-45
2024/04/19 12:19:13;;;;;;;2.70;1.63;;;5.20;99.90;;;;;;5536432;25;20076;-45
2024/04/19 12:21:40;;;;;;;3.38;1.95;;;5.10;99.90;;;;;;5534639;25;20013;-48
2024/04/19 12:24:09;;;;;;;3.00;1.90;;;5.10;99.90;;;;;;5539993;25;20013;-47
2024/04/19 12:26:38;;;;;;;2.95;2.00;;;5.10;99.90;;;;;;5534223;25;20012;-44
2024/04/19 12:29:06;;;;;;;3.45;1.77;;;5.10;99.90;;;;;;5541235;25;20011;-49
2024/04/19 12:31:35;;;;;;;3.20;1.90;;;5.10;99.90;;;;;;5537891;25;20001;-43
2024/04/19 12:34:03;;;;;;;2.55;1.42;;;5.20;99.90;;;;;;5544360;25;19996;-46
2024/04/19 12:36:30;;;;;;;1.95;1.35;;;5.20;99.90;;;;;;5530853;25;20001;-42
2024/04/19 12:38:57;;;;;;;2.60;1.60;;;5.10;99.90;;;;;;5544088;25;20005;-45
2024/04/19 12:41:24;;;;;;;2.72;1.67;;;5.00;99.90;;;;;;5547147;25;20109;-45
2024/04/19 12:43:51;;;;;;;2.35;1.50;;;5.10;99.90;;;;;;5546441;25;20086;-45
2024/04/19 12:46:20;;;;;;;2.50;1.70;;;5.00;99.90;;;;;;5538650;25;20001;-45
2024/04/19 12:48:50;;;;;;;2.75;1.50;;;5.10;99.90;;;;;;5548345;25;20004;-44
2024/04/19 12:51:23;;;;;;;2.50;1.80;;;5.10;99.90;;;;;;5539721;25;20001;-46
2024/04/19 12:53:50;;;;;;;3.17;1.80;;;5.10;99.90;;;;;;5538953;25;19997;-45
2024/04/19 12:56:18;;;;;;;10.23;1.70;;;5.10;99.90;;;;;;5539529;25;20319;-46
2024/04/19 12:58:45;;;;;;;2.45;1.48;;;5.30;99.90;;;;;;5542575;25;20001;-45